createdAt,value
2017-08-09T00:00:32.785Z,89.5
2017-08-09T00:01:34.444Z,89.2
2017-08-09T00:02:36.104Z,89.0
2017-08-09T00:03:37.764Z,89.2
2017-08-09T00:04:39.419Z,88.7
2017-08-09T00:05:41.087Z,89.1
2017-08-09T00:06:42.751Z,88.9
2017-08-09T00:07:45.155Z,88.7
2017-08-09T00:08:46.813Z,88.4
2017-08-09T00:09:48.474Z,88.2
2017-08-09T00:10:50.132Z,88.4
2017-08-09T00:11:51.798Z,88.5
2017-08-09T00:12:53.456Z,88.3
2017-08-09T00:13:55.118Z,88.6
2017-08-09T00:14:56.782Z,88.5
2017-08-09T00:15:58.437Z,88.9
2017-08-09T00:17:00.097Z,88.9
2017-08-09T00:18:01.761Z,88.9
2017-08-09T00:19:03.423Z,88.7
2017-08-09T00:20:07.809Z,88.9
2017-08-09T00:21:08.779Z,88.4
2017-08-09T00:22:10.449Z,88.2
2017-08-09T00:23:12.678Z,87.6
2017-08-09T00:24:14.338Z,87.8
2017-08-09T00:25:16.008Z,87.4
2017-08-09T00:26:17.667Z,87.8
2017-08-09T00:27:19.330Z,87.7
2017-08-09T00:28:20.989Z,88.4
2017-08-09T00:29:22.645Z,88.1
2017-08-09T00:30:24.325Z,88.2
2017-08-09T00:31:25.963Z,88.3
2017-08-09T00:32:27.619Z,88.3
2017-08-09T00:33:29.289Z,88.3
2017-08-09T00:34:30.953Z,88.6
2017-08-09T00:35:32.619Z,88.9
2017-08-09T00:36:34.284Z,89.2
2017-08-09T00:37:35.935Z,88.3
2017-08-09T00:38:37.599Z,88.8
2017-08-09T00:39:39.257Z,88.4
2017-08-09T00:40:40.932Z,88.7
2017-08-09T00:41:42.593Z,89.0
2017-08-09T00:42:44.261Z,88.7
2017-08-09T00:43:45.918Z,88.6
2017-08-09T00:44:47.592Z,89.2
2017-08-09T00:45:49.256Z,90.0
2017-08-09T00:46:50.908Z,89.7
2017-08-09T00:47:52.566Z,90.1
2017-08-09T00:48:54.236Z,90.1
2017-08-09T00:49:56.851Z,90.2
2017-08-09T00:50:58.509Z,90.2
2017-08-09T00:52:00.160Z,90.7
2017-08-09T00:53:01.822Z,91.0
2017-08-09T00:54:03.490Z,90.5
2017-08-09T00:55:05.172Z,91.0
2017-08-09T00:56:06.841Z,90.8
2017-08-09T00:57:08.534Z,90.7
2017-08-09T00:58:10.200Z,90.6
2017-08-09T00:59:11.859Z,91.0
2017-08-09T01:00:13.520Z,90.6
2017-08-09T01:01:15.185Z,90.8
2017-08-09T01:02:16.843Z,90.5
2017-08-09T01:03:18.518Z,91.1
2017-08-09T01:04:20.178Z,91.3
2017-08-09T01:05:21.848Z,91.5
2017-08-09T01:06:23.507Z,91.2
2017-08-09T01:07:25.175Z,91.0
2017-08-09T01:08:26.832Z,91.0
2017-08-09T01:09:28.505Z,91.1
2017-08-09T01:10:30.162Z,91.0
2017-08-09T01:11:31.830Z,90.9
2017-08-09T01:12:33.489Z,91.5
2017-08-09T01:13:35.150Z,90.9
2017-08-09T01:14:36.814Z,90.9
2017-08-09T01:15:38.470Z,91.9
2017-08-09T01:16:40.129Z,91.4
2017-08-09T01:17:41.787Z,91.5
2017-08-09T01:18:43.451Z,91.7
2017-08-09T01:19:45.119Z,91.6
2017-08-09T01:20:46.774Z,91.2
2017-08-09T01:21:48.432Z,91.0
2017-08-09T01:22:50.081Z,89.6
2017-08-09T01:23:51.750Z,89.8
2017-08-09T01:24:53.406Z,89.7
2017-08-09T01:25:55.070Z,90.2
2017-08-09T01:26:56.738Z,90.8
2017-08-09T01:27:58.394Z,90.1
2017-08-09T01:29:00.077Z,89.6
2017-08-09T01:30:01.725Z,89.4
2017-08-09T01:31:03.389Z,89.9
2017-08-09T01:32:05.055Z,88.5
2017-08-09T01:33:06.710Z,88.5
2017-08-09T01:34:08.374Z,88.8
2017-08-09T01:35:10.037Z,88.5
2017-08-09T01:36:11.693Z,88.2
2017-08-09T01:37:13.357Z,86.6
2017-08-09T01:38:15.016Z,86.0
2017-08-09T01:39:16.681Z,86.5
2017-08-09T01:40:18.337Z,85.7
2017-08-09T01:41:19.990Z,85.2
2017-08-09T01:42:21.653Z,85.5
2017-08-09T01:43:23.313Z,85.7
2017-08-09T01:44:24.969Z,85.4
2017-08-09T01:45:26.629Z,85.2
2017-08-09T01:46:28.292Z,85.4
2017-08-09T01:47:29.950Z,84.7
2017-08-09T01:48:31.618Z,85.3
2017-08-09T01:49:33.277Z,84.3
2017-08-09T01:50:34.939Z,84.9
2017-08-09T01:51:36.593Z,85.2
2017-08-09T01:52:38.255Z,84.8
2017-08-09T01:53:39.910Z,84.8
2017-08-09T01:54:41.569Z,84.6
2017-08-09T01:55:43.226Z,84.4
2017-08-09T01:56:44.893Z,84.5
2017-08-09T01:57:46.548Z,84.4
2017-08-09T01:58:48.208Z,84.1
2017-08-09T01:59:49.862Z,84.4
2017-08-09T02:00:51.520Z,84.1
2017-08-09T02:01:53.183Z,84.1
2017-08-09T02:02:54.843Z,84.8
2017-08-09T02:03:56.493Z,84.5
2017-08-09T02:04:58.155Z,84.3
2017-08-09T02:05:59.819Z,84.0
2017-08-09T02:07:01.468Z,84.2
2017-08-09T02:08:03.131Z,84.4
2017-08-09T02:09:04.794Z,84.7
2017-08-09T02:10:06.446Z,85.4
2017-08-09T02:11:08.105Z,85.5
2017-08-09T02:12:09.755Z,85.3
2017-08-09T02:13:11.421Z,85.9
2017-08-09T02:14:13.082Z,85.7
2017-08-09T02:15:14.737Z,86.2
2017-08-09T02:16:16.403Z,85.9
2017-08-09T02:17:18.068Z,85.9
2017-08-09T02:18:19.725Z,86.0
2017-08-09T02:19:21.388Z,86.5
2017-08-09T02:20:23.050Z,86.5
2017-08-09T02:21:24.717Z,86.7
2017-08-09T02:22:26.378Z,86.9
2017-08-09T02:23:28.042Z,86.7
2017-08-09T02:24:29.706Z,86.7
2017-08-09T02:25:31.369Z,86.7
2017-08-09T02:26:33.039Z,86.1
2017-08-09T02:27:34.690Z,85.9
2017-08-09T02:28:36.348Z,85.7
2017-08-09T02:29:38.004Z,85.6
2017-08-09T02:30:39.673Z,85.7
2017-08-09T02:31:41.342Z,85.3
2017-08-09T02:32:42.995Z,85.6
2017-08-09T02:33:44.652Z,85.4
2017-08-09T02:34:46.311Z,85.8
2017-08-09T02:35:47.969Z,85.2
2017-08-09T02:36:49.624Z,85.3
2017-08-09T02:37:51.290Z,85.4
2017-08-09T02:38:52.951Z,86.0
2017-08-09T02:39:54.612Z,85.5
2017-08-09T02:40:56.264Z,84.8
2017-08-09T02:41:57.921Z,84.6
2017-08-09T02:42:59.580Z,84.8
2017-08-09T02:44:01.247Z,84.8
2017-08-09T02:45:02.900Z,84.9
2017-08-09T02:46:04.557Z,85.2
2017-08-09T02:47:06.215Z,85.2
2017-08-09T02:48:07.880Z,85.1
2017-08-09T02:49:09.535Z,84.6
2017-08-09T02:50:11.188Z,84.6
2017-08-09T02:51:12.848Z,85.2
2017-08-09T02:52:14.506Z,85.0
2017-08-09T02:53:16.166Z,84.5
2017-08-09T02:54:17.822Z,83.4
2017-08-09T02:55:19.478Z,83.7
2017-08-09T02:56:21.134Z,83.2
2017-08-09T02:57:22.805Z,83.7
2017-08-09T02:58:24.461Z,83.1
2017-08-09T02:59:26.139Z,83.8
2017-08-09T03:00:27.797Z,83.3
2017-08-09T03:01:29.450Z,83.0
2017-08-09T03:02:31.111Z,83.2
2017-08-09T03:03:32.768Z,82.9
2017-08-09T03:04:34.429Z,83.0
2017-08-09T03:05:36.095Z,83.1
2017-08-09T03:06:37.751Z,83.1
2017-08-09T03:07:39.411Z,82.9
2017-08-09T03:08:41.084Z,82.9
2017-08-09T03:09:42.763Z,83.1
2017-08-09T03:10:44.409Z,83.6
2017-08-09T03:11:46.070Z,82.9
2017-08-09T03:12:47.733Z,83.1
2017-08-09T03:13:49.391Z,82.8
2017-08-09T03:14:51.061Z,83.1
2017-08-09T03:15:52.711Z,82.7
2017-08-09T03:16:54.372Z,82.8
2017-08-09T03:17:56.027Z,83.1
2017-08-09T03:18:57.688Z,82.4
2017-08-09T03:19:59.355Z,82.8
2017-08-09T03:21:01.021Z,82.5
2017-08-09T03:22:02.697Z,82.7
2017-08-09T03:23:04.349Z,82.7
2017-08-09T03:24:06.009Z,82.9
2017-08-09T03:25:07.665Z,82.2
2017-08-09T03:26:09.325Z,82.6
2017-08-09T03:27:10.978Z,82.9
2017-08-09T03:28:12.635Z,82.5
2017-08-09T03:29:14.299Z,83.1
2017-08-09T03:30:15.952Z,82.8
2017-08-09T03:31:17.634Z,82.8
2017-08-09T03:32:19.264Z,82.6
2017-08-09T03:33:20.922Z,82.3
2017-08-09T03:34:22.576Z,82.8
2017-08-09T03:35:24.229Z,82.4
2017-08-09T03:36:25.895Z,82.5
2017-08-09T03:37:27.570Z,81.7
2017-08-09T03:38:29.265Z,82.6
2017-08-09T03:39:30.935Z,82.4
2017-08-09T03:40:32.584Z,82.4
2017-08-09T03:41:34.249Z,82.1
2017-08-09T03:42:35.912Z,83.0
2017-08-09T03:43:37.588Z,82.9
2017-08-09T03:44:39.235Z,82.6
2017-08-09T03:45:40.897Z,82.2
2017-08-09T03:46:42.559Z,82.8
2017-08-09T03:47:44.238Z,83.0
2017-08-09T03:48:45.896Z,82.6
2017-08-09T03:49:47.559Z,82.5
2017-08-09T03:50:49.225Z,82.8
2017-08-09T03:51:50.875Z,82.8
2017-08-09T03:52:52.533Z,83.1
2017-08-09T03:53:54.193Z,83.2
2017-08-09T03:54:55.854Z,83.1
2017-08-09T03:55:57.515Z,82.9
2017-08-09T03:56:59.173Z,82.4
2017-08-09T03:58:00.836Z,82.6
2017-08-09T03:59:02.501Z,82.9
2017-08-09T04:00:04.159Z,82.8
2017-08-09T04:01:05.822Z,82.4
2017-08-09T04:02:07.483Z,82.4
2017-08-09T04:03:09.143Z,83.2
2017-08-09T04:04:10.805Z,83.1
2017-08-09T04:05:12.472Z,82.8
2017-08-09T04:06:14.135Z,82.7
2017-08-09T04:07:15.797Z,82.8
2017-08-09T04:08:17.463Z,82.7
2017-08-09T04:09:19.122Z,83.1
2017-08-09T04:10:20.781Z,82.8
2017-08-09T04:11:22.467Z,82.3
2017-08-09T04:12:24.130Z,82.4
2017-08-09T04:13:25.795Z,82.4
2017-08-09T04:14:27.455Z,82.4
2017-08-09T04:15:29.112Z,82.1
2017-08-09T04:16:30.781Z,82.3
2017-08-09T04:17:32.442Z,82.1
2017-08-09T04:18:34.103Z,83.2
2017-08-09T04:19:35.793Z,82.4
2017-08-09T04:20:37.454Z,82.4
2017-08-09T04:21:39.113Z,82.5
2017-08-09T04:22:40.784Z,82.1
2017-08-09T04:23:42.437Z,82.4
2017-08-09T04:24:44.099Z,82.1
2017-08-09T04:25:45.761Z,82.6
2017-08-09T04:26:47.429Z,83.3
2017-08-09T04:27:49.086Z,82.5
2017-08-09T04:28:50.745Z,82.0
2017-08-09T04:29:52.416Z,82.7
2017-08-09T04:30:54.086Z,82.2
2017-08-09T04:31:55.758Z,82.1
2017-08-09T04:32:57.420Z,82.4
2017-08-09T04:33:59.103Z,82.4
2017-08-09T04:35:00.741Z,82.2
2017-08-09T04:36:02.408Z,82.0
2017-08-09T04:37:04.075Z,82.5
2017-08-09T04:38:05.744Z,81.4
2017-08-09T04:39:07.410Z,83.9
2017-08-09T04:40:09.087Z,82.2
2017-08-09T04:41:10.755Z,81.5
2017-08-09T04:42:12.449Z,82.8
2017-08-09T04:43:14.110Z,82.8
2017-08-09T04:44:15.773Z,82.5
2017-08-09T04:45:17.440Z,82.3
2017-08-09T04:46:19.099Z,82.5
2017-08-09T04:47:20.759Z,82.8
2017-08-09T04:48:22.425Z,82.0
2017-08-09T04:49:24.089Z,81.5
2017-08-09T04:50:25.754Z,82.8
2017-08-09T04:51:28.335Z,82.4
2017-08-09T04:52:29.023Z,82.6
2017-08-09T04:53:30.682Z,82.0
2017-08-09T04:54:32.347Z,82.4
2017-08-09T04:55:34.024Z,82.7
2017-08-09T04:56:35.679Z,82.4
2017-08-09T04:57:37.343Z,83.2
2017-08-09T04:58:39.016Z,82.3
2017-08-09T04:59:40.674Z,82.7
2017-08-09T05:00:42.342Z,81.5
2017-08-09T05:01:44.004Z,83.0
2017-08-09T05:02:45.682Z,82.9
2017-08-09T05:03:47.345Z,81.9
2017-08-09T05:04:49.027Z,82.4
2017-08-09T05:05:50.693Z,82.5
2017-08-09T05:06:52.365Z,82.9
2017-08-09T05:07:54.029Z,81.5
2017-08-09T05:08:55.695Z,82.4
2017-08-09T05:09:57.351Z,82.6
2017-08-09T05:10:59.009Z,82.8
2017-08-09T05:12:00.668Z,82.9
2017-08-09T05:13:02.336Z,81.7
2017-08-09T05:14:04.009Z,82.3
2017-08-09T05:15:05.693Z,81.4
2017-08-09T05:16:07.359Z,83.0
2017-08-09T05:17:09.029Z,82.4
2017-08-09T05:18:10.690Z,82.8
2017-08-09T05:19:12.349Z,82.2
2017-08-09T05:20:14.015Z,82.7
2017-08-09T05:21:15.683Z,82.5
2017-08-09T05:22:17.347Z,81.7
2017-08-09T05:23:19.013Z,82.3
2017-08-09T05:24:20.678Z,82.3
2017-08-09T05:25:22.342Z,81.9
2017-08-09T05:26:24.008Z,82.2
2017-08-09T05:27:25.666Z,82.3
2017-08-09T05:28:27.358Z,82.2
2017-08-09T05:29:29.030Z,82.3
2017-08-09T05:30:30.701Z,82.3
2017-08-09T05:31:32.369Z,82.2
2017-08-09T05:32:34.049Z,82.2
2017-08-09T05:33:35.718Z,82.2
2017-08-09T05:34:37.382Z,82.7
2017-08-09T05:35:39.048Z,82.4
2017-08-09T05:36:40.719Z,82.3
2017-08-09T05:37:42.397Z,82.4
2017-08-09T05:38:44.069Z,82.3
2017-08-09T05:39:45.746Z,82.6
2017-08-09T05:40:47.439Z,82.6
2017-08-09T05:41:49.114Z,82.4
2017-08-09T05:42:51.480Z,82.3
2017-08-09T05:43:53.143Z,82.6
2017-08-09T05:44:54.808Z,82.2
2017-08-09T05:45:56.486Z,82.4
2017-08-09T05:46:58.139Z,82.1
2017-08-09T05:47:59.801Z,82.7
2017-08-09T05:49:01.471Z,82.4
2017-08-09T05:50:03.133Z,82.7
2017-08-09T05:51:04.804Z,82.8
2017-08-09T05:52:06.479Z,82.4
2017-08-09T05:53:08.152Z,82.7
2017-08-09T05:54:09.811Z,82.8
2017-08-09T05:55:11.485Z,82.5
2017-08-09T05:56:13.155Z,82.7
2017-08-09T05:57:14.824Z,82.5
2017-08-09T05:58:16.490Z,82.7
2017-08-09T05:59:18.149Z,82.6
2017-08-09T06:00:19.822Z,82.4
2017-08-09T06:01:21.489Z,82.5
2017-08-09T06:02:23.155Z,82.5
2017-08-09T06:03:24.819Z,82.2
2017-08-09T06:04:26.487Z,82.5
2017-08-09T06:05:28.153Z,82.9
2017-08-09T06:06:29.825Z,82.4
2017-08-09T06:07:31.494Z,82.2
2017-08-09T06:08:33.159Z,82.3
2017-08-09T06:09:34.827Z,82.3
2017-08-09T06:10:36.492Z,82.3
2017-08-09T06:11:38.162Z,82.4
2017-08-09T06:12:39.826Z,82.1
2017-08-09T06:13:41.503Z,82.2
2017-08-09T06:14:43.171Z,82.3
2017-08-09T06:15:44.843Z,82.1
2017-08-09T06:16:46.493Z,82.5
2017-08-09T06:17:48.158Z,82.3
2017-08-09T06:18:49.829Z,82.1
2017-08-09T06:19:51.504Z,82.2
2017-08-09T06:20:53.170Z,82.2
2017-08-09T06:21:54.833Z,82.1
2017-08-09T06:22:56.497Z,82.7
2017-08-09T06:23:58.166Z,82.3
2017-08-09T06:24:59.829Z,82.1
2017-08-09T06:26:01.490Z,82.0
2017-08-09T06:27:03.159Z,82.7
2017-08-09T06:28:04.818Z,82.8
2017-08-09T06:29:06.481Z,81.9
2017-08-09T06:30:08.146Z,82.4
2017-08-09T06:31:09.811Z,82.8
2017-08-09T06:32:11.487Z,81.7
2017-08-09T06:33:13.156Z,82.7
2017-08-09T06:34:14.820Z,82.1
2017-08-09T06:35:16.492Z,82.6
2017-08-09T06:36:18.187Z,82.4
2017-08-09T06:37:19.828Z,82.5
2017-08-09T06:38:21.488Z,82.7
2017-08-09T06:39:23.146Z,82.3
2017-08-09T06:40:24.806Z,82.7
2017-08-09T06:41:26.467Z,82.3
2017-08-09T06:42:28.135Z,82.3
2017-08-09T06:43:29.803Z,82.5
2017-08-09T06:44:31.464Z,82.6
2017-08-09T06:45:33.124Z,82.5
2017-08-09T06:46:34.792Z,82.1
2017-08-09T06:47:36.455Z,82.2
2017-08-09T06:48:38.167Z,82.7
2017-08-09T06:49:39.852Z,82.3
2017-08-09T06:50:41.517Z,82.6
2017-08-09T06:51:43.181Z,82.0
2017-08-09T06:52:44.843Z,82.7
2017-08-09T06:53:46.516Z,82.2
2017-08-09T06:54:48.185Z,82.3
2017-08-09T06:55:49.853Z,82.4
2017-08-09T06:56:51.515Z,82.4
2017-08-09T06:57:53.177Z,82.0
2017-08-09T06:58:54.842Z,82.4
2017-08-09T06:59:56.518Z,82.5
2017-08-09T07:00:58.184Z,82.5
2017-08-09T07:01:59.847Z,82.1
2017-08-09T07:03:01.515Z,82.2
2017-08-09T07:04:03.176Z,82.0
2017-08-09T07:05:04.852Z,82.2
2017-08-09T07:06:06.511Z,82.1
2017-08-09T07:07:08.174Z,82.1
2017-08-09T07:08:09.841Z,82.8
2017-08-09T07:09:11.506Z,82.5
2017-08-09T07:10:13.176Z,82.5
2017-08-09T07:11:14.842Z,83.0
2017-08-09T07:12:16.510Z,82.1
2017-08-09T07:13:18.180Z,81.8
2017-08-09T07:14:19.850Z,82.7
2017-08-09T07:15:21.522Z,81.9
2017-08-09T07:16:23.192Z,82.5
2017-08-09T07:17:24.857Z,82.4
2017-08-09T07:18:26.530Z,82.5
2017-08-09T07:19:28.200Z,82.6
2017-08-09T07:20:29.864Z,82.7
2017-08-09T07:21:31.569Z,82.4
2017-08-09T07:22:33.200Z,82.8
2017-08-09T07:23:34.869Z,82.9
2017-08-09T07:24:36.532Z,82.6
2017-08-09T07:25:38.209Z,83.4
2017-08-09T07:26:39.929Z,82.2
2017-08-09T07:27:41.596Z,81.6
2017-08-09T07:28:43.260Z,82.1
2017-08-09T07:29:44.917Z,81.2
2017-08-09T07:30:46.588Z,81.4
2017-08-09T07:31:48.308Z,82.2
2017-08-09T07:32:49.974Z,82.9
2017-08-09T07:33:51.650Z,81.4
2017-08-09T07:34:53.318Z,81.9
2017-08-09T07:35:54.978Z,81.5
2017-08-09T07:36:56.647Z,81.4
2017-08-09T07:37:58.320Z,81.6
2017-08-09T07:38:59.985Z,80.8
2017-08-09T07:40:01.652Z,81.1
2017-08-09T07:41:03.327Z,81.5
2017-08-09T07:42:04.984Z,80.8
2017-08-09T07:43:06.650Z,80.7
2017-08-09T07:44:08.316Z,81.7
2017-08-09T07:45:09.992Z,80.5
2017-08-09T07:46:11.664Z,80.3
2017-08-09T07:47:13.408Z,79.4
2017-08-09T07:48:15.077Z,79.7
2017-08-09T07:49:16.750Z,78.9
2017-08-09T07:50:18.407Z,79.0
2017-08-09T07:51:20.078Z,78.1
2017-08-09T07:52:21.748Z,77.6
2017-08-09T07:53:23.420Z,78.3
2017-08-09T07:54:25.084Z,78.4
2017-08-09T07:55:26.773Z,78.2
2017-08-09T07:56:28.440Z,77.7
2017-08-09T07:57:30.162Z,78.0
2017-08-09T07:58:31.833Z,77.3
2017-08-09T07:59:33.496Z,77.1
2017-08-09T08:00:35.173Z,77.4
2017-08-09T08:01:36.845Z,77.4
2017-08-09T08:02:38.530Z,77.7
2017-08-09T08:03:40.192Z,76.4
2017-08-09T08:04:41.864Z,77.6
2017-08-09T08:05:43.531Z,76.8
2017-08-09T08:06:45.209Z,77.6
2017-08-09T08:07:46.865Z,77.5
2017-08-09T08:08:48.536Z,78.1
2017-08-09T08:09:50.207Z,78.1
2017-08-09T08:10:51.888Z,78.3
2017-08-09T08:11:53.555Z,78.3
2017-08-09T08:12:55.227Z,78.5
2017-08-09T08:13:56.889Z,78.1
2017-08-09T08:14:58.568Z,78.2
2017-08-09T08:16:00.236Z,78.2
2017-08-09T08:17:01.973Z,77.8
2017-08-09T08:18:03.639Z,77.8
2017-08-09T08:19:05.349Z,77.1
2017-08-09T08:20:07.087Z,77.4
2017-08-09T08:21:08.762Z,77.3
2017-08-09T08:22:10.426Z,77.2
2017-08-09T08:23:12.120Z,76.4
2017-08-09T08:24:13.800Z,76.2
2017-08-09T08:25:15.529Z,74.1
2017-08-09T08:26:17.198Z,73.1
2017-08-09T08:27:18.869Z,72.2
2017-08-09T08:28:20.541Z,72.3
2017-08-09T08:29:22.209Z,69.3
2017-08-09T08:30:23.898Z,68.9
2017-08-09T08:31:25.594Z,70.6
2017-08-09T08:32:27.247Z,71.8
2017-08-09T08:33:28.920Z,72.3
2017-08-09T08:34:30.593Z,73.2
2017-08-09T08:35:32.264Z,73.2
2017-08-09T08:36:33.942Z,73.6
2017-08-09T08:37:35.617Z,74.2
2017-08-09T08:38:37.298Z,74.4
2017-08-09T08:39:38.970Z,74.4
2017-08-09T08:40:40.640Z,75.7
2017-08-09T08:41:42.312Z,76.0
2017-08-09T08:42:43.996Z,76.2
2017-08-09T08:43:45.668Z,77.1
2017-08-09T08:44:47.334Z,76.1
2017-08-09T08:45:49.014Z,76.2
2017-08-09T08:46:50.694Z,76.2
2017-08-09T08:47:52.357Z,75.6
2017-08-09T08:48:54.023Z,76.0
2017-08-09T08:49:55.692Z,75.1
2017-08-09T08:50:57.360Z,74.2
2017-08-09T08:51:59.036Z,73.1
2017-08-09T08:53:00.767Z,72.6
2017-08-09T08:54:02.432Z,72.5
2017-08-09T08:55:04.083Z,71.9
2017-08-09T08:56:05.755Z,72.0
2017-08-09T08:57:07.436Z,72.1
2017-08-09T08:58:09.104Z,70.1
2017-08-09T08:59:10.775Z,69.3
2017-08-09T09:00:12.446Z,67.4
2017-08-09T09:01:14.124Z,66.8
2017-08-09T09:02:15.831Z,65.1
2017-08-09T09:03:17.469Z,64.9
2017-08-09T09:04:19.139Z,66.0
2017-08-09T09:05:20.814Z,69.3
2017-08-09T09:06:22.483Z,67.6
2017-08-09T09:07:24.163Z,63.6
2017-08-09T09:08:25.841Z,57.2
2017-08-09T09:09:27.604Z,54.3
2017-08-09T09:10:29.284Z,53.3
2017-08-09T09:11:30.973Z,47.4
2017-08-09T09:12:32.647Z,43.2
2017-08-09T09:13:34.334Z,42.7
2017-08-09T09:14:36.021Z,42.3
2017-08-09T09:15:37.702Z,42.2
2017-08-09T09:16:39.384Z,41.9
2017-08-09T09:17:41.070Z,40.9
2017-08-09T09:18:42.759Z,39.6
2017-08-09T09:19:44.440Z,41.6
2017-08-09T09:20:46.121Z,39.1
2017-08-09T09:21:47.807Z,37.8
2017-08-09T09:22:49.490Z,38.2
2017-08-09T09:23:51.171Z,37.3
2017-08-09T09:24:52.853Z,36.5
2017-08-09T09:25:54.549Z,36.2
2017-08-09T09:26:56.411Z,35.6
2017-08-09T09:27:58.097Z,34.6
2017-08-09T09:28:59.790Z,37.0
2017-08-09T09:30:01.468Z,39.5
2017-08-09T09:31:03.152Z,42.4
2017-08-09T09:32:04.830Z,42.5
2017-08-09T09:33:06.507Z,43.0
2017-08-09T09:34:08.195Z,44.0
2017-08-09T09:35:09.894Z,46.7
2017-08-09T09:36:11.567Z,45.6
2017-08-09T09:37:13.249Z,44.2
2017-08-09T09:38:14.931Z,44.0
2017-08-09T09:39:16.605Z,42.1
2017-08-09T09:40:18.286Z,41.9
2017-08-09T09:41:19.960Z,41.7
2017-08-09T09:42:21.652Z,43.6
2017-08-09T09:43:23.372Z,46.8
2017-08-09T09:44:25.055Z,47.1
2017-08-09T09:45:26.741Z,47.7
2017-08-09T09:46:28.417Z,47.8
2017-08-09T09:47:30.101Z,47.5
2017-08-09T09:48:31.775Z,47.1
2017-08-09T09:49:33.471Z,45.6
2017-08-09T09:50:35.143Z,42.8
2017-08-09T09:51:36.815Z,44.1
2017-08-09T09:52:38.621Z,45.1
2017-08-09T09:53:40.319Z,47.0
2017-08-09T09:54:41.996Z,48.3
2017-08-09T09:55:43.660Z,50.1
2017-08-09T09:56:45.338Z,51.5
2017-08-09T09:57:47.021Z,51.5
2017-08-09T09:58:48.690Z,50.8
2017-08-09T09:59:50.366Z,48.4
2017-08-09T10:00:52.035Z,46.6
2017-08-09T10:01:53.705Z,45.0
2017-08-09T10:02:55.416Z,45.3
2017-08-09T10:03:57.088Z,46.1
2017-08-09T10:04:58.760Z,47.7
2017-08-09T10:06:00.451Z,48.2
2017-08-09T10:07:02.127Z,47.4
2017-08-09T10:08:03.809Z,47.0
2017-08-09T10:09:05.531Z,47.5
2017-08-09T10:10:07.211Z,43.9
2017-08-09T10:11:08.887Z,41.2
2017-08-09T10:12:10.566Z,40.2
2017-08-09T10:13:12.246Z,39.8
2017-08-09T10:14:13.929Z,40.8
2017-08-09T10:15:15.608Z,38.9
2017-08-09T10:16:17.287Z,38.0
2017-08-09T10:17:18.967Z,39.2
2017-08-09T10:18:20.649Z,40.6
2017-08-09T10:19:22.334Z,42.9
2017-08-09T10:20:24.009Z,44.9
2017-08-09T10:21:25.684Z,45.1
2017-08-09T10:22:27.363Z,44.2
2017-08-09T10:23:29.048Z,41.7
2017-08-09T10:24:30.737Z,38.8
2017-08-09T10:25:32.418Z,38.0
2017-08-09T10:26:34.096Z,38.9
2017-08-09T10:27:35.770Z,38.8
2017-08-09T10:28:37.458Z,38.3
2017-08-09T10:29:39.140Z,38.8
2017-08-09T10:30:40.814Z,39.7
2017-08-09T10:31:42.501Z,41.1
2017-08-09T10:32:44.191Z,43.2
2017-08-09T10:33:45.877Z,40.8
2017-08-09T10:34:47.549Z,38.9
2017-08-09T10:35:49.233Z,39.6
2017-08-09T10:36:50.920Z,40.7
2017-08-09T10:37:52.598Z,40.2
2017-08-09T10:38:54.282Z,37.4
2017-08-09T10:39:55.964Z,38.0
2017-08-09T10:40:57.651Z,38.8
2017-08-09T10:41:59.349Z,39.2
2017-08-09T10:43:01.027Z,41.0
2017-08-09T10:44:04.228Z,40.7
2017-08-09T10:45:05.938Z,40.6
2017-08-09T10:46:07.620Z,39.7
2017-08-09T10:47:09.298Z,39.9
2017-08-09T10:48:10.985Z,40.7
2017-08-09T10:49:12.652Z,41.5
2017-08-09T10:50:14.355Z,41.9
2017-08-09T10:51:16.028Z,43.1
2017-08-09T10:52:17.705Z,45.6
2017-08-09T10:53:19.376Z,47.0
2017-08-09T10:54:21.078Z,47.2
2017-08-09T10:55:22.765Z,46.2
2017-08-09T10:56:24.435Z,45.3
2017-08-09T10:57:26.108Z,43.4
2017-08-09T10:58:27.787Z,41.8
2017-08-09T10:59:29.467Z,40.2
2017-08-09T11:00:31.148Z,37.0
2017-08-09T11:01:33.656Z,37.3
2017-08-09T11:02:35.351Z,39.4
2017-08-09T11:03:37.030Z,39.5
2017-08-09T11:04:38.707Z,37.4
2017-08-09T11:05:40.401Z,37.0
2017-08-09T11:06:44.415Z,37.8
2017-08-09T11:07:46.106Z,36.4
2017-08-09T11:08:47.790Z,37.7
2017-08-09T11:09:49.466Z,37.9
2017-08-09T11:10:51.151Z,38.0
2017-08-09T11:11:52.849Z,38.6
2017-08-09T11:12:54.521Z,37.9
2017-08-09T11:13:56.231Z,36.2
2017-08-09T11:14:57.934Z,36.9
2017-08-09T11:15:59.611Z,34.8
2017-08-09T11:17:01.292Z,36.0
2017-08-09T11:18:03.041Z,38.7
2017-08-09T11:19:04.728Z,38.7
2017-08-09T11:20:06.407Z,38.5
2017-08-09T11:21:08.086Z,37.9
2017-08-09T11:22:09.781Z,38.7
2017-08-09T11:23:11.455Z,38.1
2017-08-09T11:24:13.142Z,37.5
2017-08-09T11:25:14.827Z,35.9
2017-08-09T11:26:16.510Z,35.0
2017-08-09T11:27:18.189Z,36.3
2017-08-09T11:28:19.875Z,39.0
2017-08-09T11:29:21.556Z,40.6
2017-08-09T11:30:23.243Z,39.6
2017-08-09T11:31:24.935Z,38.8
2017-08-09T11:32:26.608Z,38.6
2017-08-09T11:33:28.290Z,37.0
2017-08-09T11:34:29.969Z,36.3
2017-08-09T11:35:31.649Z,36.3
2017-08-09T11:36:33.328Z,36.8
2017-08-09T11:37:35.012Z,37.8
2017-08-09T11:38:36.699Z,36.9
2017-08-09T11:39:38.375Z,34.8
2017-08-09T11:40:40.049Z,34.9
2017-08-09T11:41:41.724Z,34.0
2017-08-09T11:42:43.445Z,33.2
2017-08-09T11:43:45.127Z,35.5
2017-08-09T11:44:46.803Z,38.5
2017-08-09T11:45:48.492Z,39.5
2017-08-09T11:46:50.171Z,38.2
2017-08-09T11:47:51.857Z,38.1
2017-08-09T11:48:53.537Z,35.9
2017-08-09T11:49:55.222Z,34.2
2017-08-09T11:50:56.897Z,35.3
2017-08-09T11:51:58.591Z,33.7
2017-08-09T11:53:00.303Z,31.3
2017-08-09T11:54:01.962Z,31.5
2017-08-09T11:55:03.660Z,31.3
2017-08-09T11:56:05.328Z,31.9
2017-08-09T11:57:07.006Z,32.3
2017-08-09T11:58:08.695Z,34.1
2017-08-09T11:59:10.389Z,34.7
2017-08-09T12:00:12.080Z,32.6
2017-08-09T12:01:13.762Z,31.7
2017-08-09T12:02:15.440Z,30.0
2017-08-09T12:03:17.127Z,30.2
2017-08-09T12:04:18.813Z,29.8
2017-08-09T12:05:20.498Z,31.4
2017-08-09T12:06:22.192Z,31.6
2017-08-09T12:07:23.885Z,31.5
2017-08-09T12:08:25.559Z,31.2
2017-08-09T12:09:27.239Z,29.9
2017-08-09T12:10:28.921Z,31.5
2017-08-09T12:11:30.610Z,33.7
2017-08-09T12:12:33.209Z,33.8
2017-08-09T12:13:34.892Z,35.7
2017-08-09T12:14:36.680Z,37.2
2017-08-09T12:15:38.353Z,38.7
2017-08-09T12:16:40.043Z,37.5
2017-08-09T12:17:41.722Z,35.7
2017-08-09T12:18:43.394Z,34.0
2017-08-09T12:19:45.083Z,34.3
2017-08-09T12:20:46.765Z,34.8
2017-08-09T12:21:48.441Z,34.4
2017-08-09T12:22:50.120Z,32.8
2017-08-09T12:23:51.798Z,32.1
2017-08-09T12:24:53.483Z,30.8
2017-08-09T12:25:55.160Z,29.7
2017-08-09T12:26:56.847Z,30.8
2017-08-09T12:27:58.546Z,30.6
2017-08-09T12:29:00.217Z,31.5
2017-08-09T12:30:01.893Z,32.4
2017-08-09T12:31:03.576Z,31.5
2017-08-09T12:32:05.263Z,32.0
2017-08-09T12:33:06.938Z,31.9
2017-08-09T12:34:09.129Z,30.9
2017-08-09T12:35:10.812Z,31.4
2017-08-09T12:36:12.499Z,32.8
2017-08-09T12:37:14.177Z,34.4
2017-08-09T12:38:15.858Z,31.9
2017-08-09T12:39:17.543Z,29.9
2017-08-09T12:40:19.237Z,31.8
2017-08-09T12:41:20.916Z,35.6
2017-08-09T12:42:22.620Z,36.6
2017-08-09T12:43:24.331Z,36.8
2017-08-09T12:44:26.078Z,35.7
2017-08-09T12:45:27.765Z,34.7
2017-08-09T12:46:29.468Z,33.1
2017-08-09T12:47:31.142Z,32.2
2017-08-09T12:48:32.825Z,31.4
2017-08-09T12:49:34.513Z,31.0
2017-08-09T12:50:36.201Z,31.0
2017-08-09T12:51:37.876Z,30.0
2017-08-09T12:52:39.556Z,30.6
2017-08-09T12:53:41.226Z,32.4
2017-08-09T12:54:42.905Z,34.0
2017-08-09T12:55:44.583Z,34.3
2017-08-09T12:56:46.256Z,34.1
2017-08-09T12:57:47.943Z,32.8
2017-08-09T12:58:49.622Z,32.4
2017-08-09T12:59:51.297Z,32.1
2017-08-09T13:00:52.987Z,30.7
2017-08-09T13:01:54.658Z,30.7
2017-08-09T13:02:56.349Z,29.6
2017-08-09T13:03:58.023Z,29.6
2017-08-09T13:04:59.706Z,27.6
2017-08-09T13:06:01.386Z,28.5
2017-08-09T13:07:03.065Z,29.4
2017-08-09T13:08:04.755Z,30.4
2017-08-09T13:09:06.436Z,31.7
2017-08-09T13:10:08.118Z,32.0
2017-08-09T13:11:09.795Z,33.1
2017-08-09T13:12:11.480Z,34.8
2017-08-09T13:13:13.161Z,33.5
2017-08-09T13:14:14.839Z,34.5
2017-08-09T13:15:16.519Z,35.4
2017-08-09T13:16:18.205Z,35.4
2017-08-09T13:17:19.879Z,34.9
2017-08-09T13:18:21.568Z,34.1
2017-08-09T13:19:23.243Z,31.7
2017-08-09T13:20:24.916Z,31.0
2017-08-09T13:21:26.593Z,30.8
2017-08-09T13:22:28.281Z,29.3
2017-08-09T13:23:29.960Z,28.3
2017-08-09T13:24:31.641Z,27.6
2017-08-09T13:25:33.319Z,28.0
2017-08-09T13:26:34.996Z,29.4
2017-08-09T13:27:36.679Z,31.2
2017-08-09T13:28:38.354Z,31.1
2017-08-09T13:29:40.042Z,32.6
2017-08-09T13:30:41.724Z,34.8
2017-08-09T13:31:43.410Z,36.6
2017-08-09T13:32:45.089Z,36.9
2017-08-09T13:33:46.773Z,37.3
2017-08-09T13:34:48.447Z,37.0
2017-08-09T13:35:50.116Z,36.1
2017-08-09T13:36:51.794Z,36.8
2017-08-09T13:37:53.479Z,36.5
2017-08-09T13:38:55.155Z,36.6
2017-08-09T13:39:56.835Z,35.7
2017-08-09T13:40:58.514Z,34.9